createdAt,value
2017-03-29T00:00:39.738Z,1015.95
2017-03-29T00:01:50.122Z,1015.98
2017-03-29T00:03:00.672Z,1015.98
2017-03-29T00:04:10.984Z,1015.98
2017-03-29T00:05:21.295Z,1015.98
2017-03-29T00:06:31.793Z,1016
2017-03-29T00:07:42.332Z,1016.02
2017-03-29T00:08:52.670Z,1016.01
2017-03-29T00:10:02.855Z,1016.04
2017-03-29T00:11:12.720Z,1016.03
2017-03-29T00:12:22.563Z,1016.03
2017-03-29T00:13:33.227Z,1016.03
2017-03-29T00:14:43.502Z,1016.01
2017-03-29T00:15:53.617Z,1016.04
2017-03-29T00:17:04.138Z,1016.01
2017-03-29T00:18:14.662Z,1016.03
2017-03-29T00:19:25.119Z,1016.02
2017-03-29T00:20:35.657Z,1016.03
2017-03-29T00:21:45.905Z,1016.08
2017-03-29T00:22:56.144Z,1016.06
2017-03-29T00:24:06.383Z,1016.06
2017-03-29T00:25:16.313Z,1016.11
2017-03-29T00:26:26.247Z,1016.09
2017-03-29T00:27:36.491Z,1016.07
2017-03-29T00:28:46.101Z,1016.01
2017-03-29T00:29:56.040Z,1016.03
2017-03-29T00:31:06.281Z,1016.05
2017-03-29T00:32:16.223Z,1016.06
2017-03-29T00:33:26.148Z,1016.06
2017-03-29T00:34:36.389Z,1016.06
2017-03-29T00:35:46.320Z,1016.09
2017-03-29T00:36:56.246Z,1016.1
2017-03-29T00:38:06.177Z,1016.16
2017-03-29T00:39:15.798Z,1016.1
2017-03-29T00:40:25.723Z,1016.13
2017-03-29T00:41:35.964Z,1016.14
2017-03-29T00:42:45.890Z,1016.13
2017-03-29T00:43:55.814Z,1016.17
2017-03-29T00:45:05.432Z,1016.21
2017-03-29T00:46:15.708Z,1016.13
2017-03-29T00:47:25.649Z,1016.12
2017-03-29T00:48:35.889Z,1016.14
2017-03-29T00:49:46.148Z,1016.18
2017-03-29T00:50:56.394Z,1016.18
2017-03-29T00:52:06.639Z,1016.18
2017-03-29T00:53:16.250Z,1016.21
2017-03-29T00:54:25.863Z,1016.2
2017-03-29T00:55:35.786Z,1016.24
2017-03-29T00:56:45.714Z,1016.22
2017-03-29T00:57:55.646Z,1016.2
2017-03-29T00:59:05.262Z,1016.23
2017-03-29T01:00:15.505Z,1016.18
2017-03-29T01:01:25.738Z,1016.21
2017-03-29T01:02:35.667Z,1016.19
2017-03-29T01:03:45.619Z,1016.19
2017-03-29T01:04:55.857Z,1016.09
2017-03-29T01:06:05.159Z,1016.09
2017-03-29T01:07:15.403Z,1016.1
2017-03-29T01:08:25.647Z,1016.08
2017-03-29T01:09:35.569Z,1016.1
2017-03-29T01:10:45.182Z,1016.06
2017-03-29T01:11:55.423Z,1016.05
2017-03-29T01:13:05.667Z,1016.04
2017-03-29T01:14:15.907Z,1016
2017-03-29T01:15:26.152Z,1015.97
2017-03-29T01:16:36.392Z,1015.96
2017-03-29T01:17:46.646Z,1015.99
2017-03-29T01:18:56.580Z,1015.96
2017-03-29T01:20:06.506Z,1015.96
2017-03-29T01:21:16.433Z,1015.93
2017-03-29T01:22:26.673Z,1015.96
2017-03-29T01:23:36.930Z,1015.9
2017-03-29T01:24:47.174Z,1015.91
2017-03-29T01:25:57.107Z,1015.92
2017-03-29T01:27:07.361Z,1015.92
2017-03-29T01:28:17.607Z,1015.93
2017-03-29T01:29:27.853Z,1015.95
2017-03-29T01:30:38.097Z,1015.91
2017-03-29T01:31:48.020Z,1015.88
2017-03-29T01:32:58.262Z,1015.92
2017-03-29T01:34:08.496Z,1015.89
2017-03-29T01:35:18.421Z,1015.89
2017-03-29T01:36:28.664Z,1015.88
2017-03-29T01:37:38.278Z,1015.84
2017-03-29T01:38:48.520Z,1015.88
2017-03-29T01:39:58.141Z,1015.84
2017-03-29T01:41:07.142Z,1015.84
2017-03-29T01:42:17.075Z,1015.79
2017-03-29T01:43:27.012Z,1015.8
2017-03-29T01:44:36.947Z,1015.76
2017-03-29T01:45:47.205Z,1015.79
2017-03-29T01:46:57.144Z,1015.77
2017-03-29T01:48:07.073Z,1015.82
2017-03-29T01:49:17.314Z,1015.8
2017-03-29T01:50:27.567Z,1015.82
2017-03-29T01:51:37.807Z,1015.82
2017-03-29T01:52:47.739Z,1015.78
2017-03-29T01:53:57.667Z,1015.76
2017-03-29T01:55:07.905Z,1015.76
2017-03-29T01:56:18.148Z,1015.76
2017-03-29T01:57:28.390Z,1015.76
2017-03-29T01:58:38.311Z,1015.76
2017-03-29T01:59:48.563Z,1015.8
2017-03-29T02:00:58.497Z,1015.78
2017-03-29T02:02:08.744Z,1015.78
2017-03-29T02:03:18.993Z,1015.8
2017-03-29T02:04:29.236Z,1015.81
2017-03-29T02:05:39.482Z,1015.88
2017-03-29T02:06:48.788Z,1015.88
2017-03-29T02:07:59.031Z,1015.9
2017-03-29T02:09:08.647Z,1015.88
2017-03-29T02:10:18.572Z,1015.85
2017-03-29T02:11:28.808Z,1015.86
2017-03-29T02:12:38.735Z,1015.83
2017-03-29T02:13:48.980Z,1015.85
2017-03-29T02:14:58.598Z,1015.83
2017-03-29T02:16:08.214Z,1015.86
2017-03-29T02:17:18.144Z,1015.88
2017-03-29T02:18:28.388Z,1015.92
2017-03-29T02:19:38.634Z,1015.93
2017-03-29T02:20:48.564Z,1015.92
2017-03-29T02:21:58.493Z,1015.9
2017-03-29T02:23:08.744Z,1015.9
2017-03-29T02:24:18.982Z,1015.94
2017-03-29T02:25:29.223Z,1015.93
2017-03-29T02:26:39.474Z,1015.94
2017-03-29T02:27:49.719Z,1015.95
2017-03-29T02:28:59.958Z,1015.99
2017-03-29T02:30:09.574Z,1016.01
2017-03-29T02:31:20.017Z,1016.01
2017-03-29T02:32:30.924Z,1016.05
2017-03-29T02:33:41.168Z,1016
2017-03-29T02:34:51.414Z,1015.99
2017-03-29T02:36:01.663Z,1015.96
2017-03-29T02:37:11.601Z,1015.95
2017-03-29T02:38:21.537Z,1015.93
2017-03-29T02:39:31.460Z,1015.89
2017-03-29T02:40:41.722Z,1015.89
2017-03-29T02:41:51.655Z,1015.91
2017-03-29T02:43:01.889Z,1015.93
2017-03-29T02:44:11.812Z,1015.87
2017-03-29T02:45:21.741Z,1015.82
2017-03-29T02:46:31.999Z,1015.82
2017-03-29T02:47:41.925Z,1015.84
2017-03-29T02:48:52.173Z,1015.85
2017-03-29T02:50:02.430Z,1015.85
2017-03-29T02:51:12.677Z,1015.83
2017-03-29T02:52:22.617Z,1015.85
2017-03-29T02:53:32.539Z,1015.86
2017-03-29T02:54:41.842Z,1015.82
2017-03-29T02:55:52.115Z,1015.79
2017-03-29T02:57:02.047Z,1015.74
2017-03-29T02:58:12.307Z,1015.75
2017-03-29T02:59:22.549Z,1015.69
2017-03-29T03:00:32.483Z,1015.71
2017-03-29T03:01:42.719Z,1015.67
2017-03-29T03:02:52.647Z,1015.65
2017-03-29T03:04:02.594Z,1015.67
2017-03-29T03:05:12.208Z,1015.68
2017-03-29T03:06:22.136Z,1015.74
2017-03-29T03:07:32.070Z,1015.73
2017-03-29T03:08:42.000Z,1015.67
2017-03-29T03:09:52.242Z,1015.63
2017-03-29T03:11:02.480Z,1015.7
2017-03-29T03:12:12.726Z,1015.71
2017-03-29T03:13:22.977Z,1015.68
2017-03-29T03:14:33.228Z,1015.66
2017-03-29T03:15:43.473Z,1015.63
2017-03-29T03:16:53.717Z,1015.6
2017-03-29T03:18:03.650Z,1015.6
2017-03-29T03:19:13.579Z,1015.63
2017-03-29T03:20:23.823Z,1015.62
2017-03-29T03:21:33.753Z,1015.6
2017-03-29T03:22:43.993Z,1015.65
2017-03-29T03:23:53.608Z,1015.62
2017-03-29T03:25:03.542Z,1015.63
2017-03-29T03:26:13.779Z,1015.6
2017-03-29T03:27:24.024Z,1015.57
2017-03-29T03:28:33.643Z,1015.58
2017-03-29T03:29:43.883Z,1015.57
2017-03-29T03:30:54.129Z,1015.61
2017-03-29T03:32:04.054Z,1015.6
2017-03-29T03:33:14.304Z,1015.59
2017-03-29T03:34:23.916Z,1015.6
2017-03-29T03:35:33.840Z,1015.56
2017-03-29T03:36:44.079Z,1015.59
2017-03-29T03:37:54.321Z,1015.58
2017-03-29T03:39:04.251Z,1015.6
2017-03-29T03:40:14.493Z,1015.61
2017-03-29T03:41:24.424Z,1015.61
2017-03-29T03:42:34.666Z,1015.63
2017-03-29T03:43:44.903Z,1015.62
2017-03-29T03:44:54.830Z,1015.62
2017-03-29T03:46:04.758Z,1015.63
2017-03-29T03:47:14.690Z,1015.64
2017-03-29T03:48:24.936Z,1015.65
2017-03-29T03:49:35.182Z,1015.65
2017-03-29T03:50:45.419Z,1015.66
2017-03-29T03:51:55.344Z,1015.7
2017-03-29T03:53:05.587Z,1015.71
2017-03-29T03:54:15.528Z,1015.71
2017-03-29T03:55:25.774Z,1015.73
2017-03-29T03:56:35.699Z,1015.73
2017-03-29T03:57:45.639Z,1015.71
2017-03-29T03:58:55.876Z,1015.7
2017-03-29T04:00:05.180Z,1015.73
2017-03-29T04:01:15.428Z,1015.73
2017-03-29T04:02:25.364Z,1015.7
2017-03-29T04:03:35.627Z,1015.68
2017-03-29T04:04:45.871Z,1015.68
2017-03-29T04:05:56.106Z,1015.67
2017-03-29T04:07:06.349Z,1015.65
2017-03-29T04:08:16.793Z,1015.66
2017-03-29T04:09:27.029Z,1015.68
2017-03-29T04:10:36.638Z,1015.72
2017-03-29T04:11:46.259Z,1015.71
2017-03-29T04:12:56.217Z,1015.76
2017-03-29T04:14:06.451Z,1015.75
2017-03-29T04:15:16.708Z,1015.82
2017-03-29T04:16:26.977Z,1015.84
2017-03-29T04:17:37.217Z,1015.88
2017-03-29T04:18:47.134Z,1015.88
2017-03-29T04:19:57.374Z,1015.81
2017-03-29T04:21:07.301Z,1015.78
2017-03-29T04:22:17.542Z,1015.79
2017-03-29T04:23:26.848Z,1015.75
2017-03-29T04:24:36.777Z,1015.72
2017-03-29T04:25:47.020Z,1015.71
2017-03-29T04:26:56.954Z,1015.7
2017-03-29T04:28:06.880Z,1015.69
2017-03-29T04:29:16.807Z,1015.7
2017-03-29T04:30:27.062Z,1015.71
2017-03-29T04:31:37.300Z,1015.77
2017-03-29T04:32:47.231Z,1015.77
2017-03-29T04:33:57.156Z,1015.79
2017-03-29T04:35:07.085Z,1015.78
2017-03-29T04:36:17.019Z,1015.79
2017-03-29T04:37:27.314Z,1015.71
2017-03-29T04:38:37.554Z,1015.71
2017-03-29T04:39:47.475Z,1015.73
2017-03-29T04:40:57.711Z,1015.76
2017-03-29T04:42:07.645Z,1015.71
2017-03-29T04:43:17.887Z,1015.68
2017-03-29T04:44:28.125Z,1015.71
2017-03-29T04:45:38.361Z,1015.67
2017-03-29T04:46:48.601Z,1015.7
2017-03-29T04:47:58.835Z,1015.69
2017-03-29T04:49:08.759Z,1015.67
2017-03-29T04:50:19.291Z,1015.66
2017-03-29T04:51:29.252Z,1015.63
2017-03-29T04:52:39.766Z,1015.63
2017-03-29T04:53:49.936Z,1015.65
2017-03-29T04:55:00.210Z,1015.74
2017-03-29T04:56:10.478Z,1015.74
2017-03-29T04:57:20.401Z,1015.76
2017-03-29T04:58:30.640Z,1015.69
2017-03-29T04:59:40.878Z,1015.78
2017-03-29T05:00:50.800Z,1015.72
2017-03-29T05:02:01.051Z,1015.66
2017-03-29T05:03:10.664Z,1015.64
2017-03-29T05:04:20.904Z,1015.61
2017-03-29T05:05:31.139Z,1015.63
2017-03-29T05:06:41.068Z,1015.58
2017-03-29T05:07:51.308Z,1015.59
2017-03-29T05:09:01.550Z,1015.6
2017-03-29T05:10:11.474Z,1015.59
2017-03-29T05:11:21.403Z,1015.61
2017-03-29T05:12:31.646Z,1015.72
2017-03-29T05:13:41.889Z,1015.77
2017-03-29T05:14:52.118Z,1015.78
2017-03-29T05:16:02.046Z,1015.87
2017-03-29T05:17:11.980Z,1015.9
2017-03-29T05:18:22.223Z,1015.95
2017-03-29T05:19:32.461Z,1015.94
2017-03-29T05:20:42.700Z,1015.9
2017-03-29T05:21:52.319Z,1015.94
2017-03-29T05:23:02.564Z,1015.9
2017-03-29T05:24:12.836Z,1015.87
2017-03-29T05:25:22.458Z,1015.9
2017-03-29T05:26:32.700Z,1015.89
2017-03-29T05:27:42.633Z,1015.88
2017-03-29T05:28:52.251Z,1015.83
2017-03-29T05:30:02.485Z,1015.88
2017-03-29T05:31:12.414Z,1015.88
2017-03-29T05:32:22.343Z,1015.98
2017-03-29T05:33:32.304Z,1015.92
2017-03-29T05:34:42.242Z,1015.95
2017-03-29T05:35:52.174Z,1015.99
2017-03-29T05:37:02.412Z,1016.01
2017-03-29T05:38:12.653Z,1016.06
2017-03-29T05:39:22.263Z,1016.06
2017-03-29T05:40:32.514Z,1016.02
2017-03-29T05:41:42.753Z,1016.05
2017-03-29T05:42:53.000Z,1016.08
2017-03-29T05:44:03.241Z,1016.03
2017-03-29T05:45:13.190Z,1016.05
2017-03-29T05:46:23.129Z,1016.08
2017-03-29T05:47:33.055Z,1016.08
2017-03-29T05:48:42.980Z,1016.07
2017-03-29T05:49:52.913Z,1016.04
2017-03-29T05:51:02.526Z,1016
2017-03-29T05:52:12.136Z,1016.02
2017-03-29T05:53:22.377Z,1016.02
2017-03-29T05:54:32.619Z,1016.06
2017-03-29T05:55:42.857Z,1016.06
2017-03-29T05:56:52.789Z,1016
2017-03-29T05:58:02.716Z,1016
2017-03-29T05:59:12.961Z,1015.95
2017-03-29T06:00:22.893Z,1015.98
2017-03-29T06:01:33.132Z,1015.93
2017-03-29T06:02:43.064Z,1015.97
2017-03-29T06:03:52.678Z,1015.91
2017-03-29T06:05:02.297Z,1016
2017-03-29T06:06:12.533Z,1015.98
2017-03-29T06:07:22.772Z,1015.94
2017-03-29T06:08:32.386Z,1015.98
2017-03-29T06:09:42.623Z,1015.95
2017-03-29T06:10:52.550Z,1016.01
2017-03-29T06:12:02.483Z,1015.99
2017-03-29T06:13:12.412Z,1015.93
2017-03-29T06:14:22.356Z,1015.94
2017-03-29T06:15:32.596Z,1016.01
2017-03-29T06:16:42.841Z,1015.91
2017-03-29T06:17:52.772Z,1015.94
2017-03-29T06:19:02.386Z,1015.98
2017-03-29T06:20:12.635Z,1016.01
2017-03-29T06:21:22.586Z,1015.98
2017-03-29T06:22:32.511Z,1015.99
2017-03-29T06:23:42.752Z,1015.95
2017-03-29T06:24:52.059Z,1015.94
2017-03-29T06:26:01.986Z,1015.98
2017-03-29T06:27:12.229Z,1015.98
2017-03-29T06:28:21.843Z,1016
2017-03-29T06:29:32.093Z,1015.99
2017-03-29T06:30:42.331Z,1016
2017-03-29T06:31:51.957Z,1015.92
2017-03-29T06:33:02.195Z,1015.98
2017-03-29T06:34:12.431Z,1015.98
2017-03-29T06:35:22.041Z,1016.03
2017-03-29T06:36:31.977Z,1016.05
2017-03-29T06:37:41.906Z,1016.03
2017-03-29T06:38:51.832Z,1015.98
2017-03-29T06:40:01.757Z,1016.02
2017-03-29T06:41:11.996Z,1015.99
2017-03-29T06:42:21.918Z,1016
2017-03-29T06:43:32.162Z,1016.03
2017-03-29T06:44:42.439Z,1016.02
2017-03-29T06:45:52.681Z,1016.07
2017-03-29T06:47:02.947Z,1016.06
2017-03-29T06:48:13.189Z,1016.12
2017-03-29T06:49:22.809Z,1016.09
2017-03-29T06:50:32.738Z,1016.02
2017-03-29T06:51:42.978Z,1015.99
2017-03-29T06:52:53.242Z,1016.03
2017-03-29T06:54:02.871Z,1015.94
2017-03-29T06:55:12.797Z,1016
2017-03-29T06:56:22.720Z,1015.88
2017-03-29T06:57:32.646Z,1015.92
2017-03-29T06:58:42.572Z,1015.91
2017-03-29T06:59:52.181Z,1015.97
2017-03-29T07:01:01.792Z,1015.93
2017-03-29T07:02:11.727Z,1015.95
2017-03-29T07:03:21.358Z,1015.84
2017-03-29T07:04:31.643Z,1015.87
2017-03-29T07:05:42.458Z,1015.92
2017-03-29T07:06:52.074Z,1015.88
2017-03-29T07:08:02.315Z,1015.98
2017-03-29T07:09:12.237Z,1015.97
2017-03-29T07:10:22.483Z,1015.88
2017-03-29T07:11:32.415Z,1015.9
2017-03-29T07:12:42.025Z,1015.9
2017-03-29T07:13:51.954Z,1015.9
2017-03-29T07:15:01.883Z,1015.92
2017-03-29T07:16:12.120Z,1015.9
2017-03-29T07:17:22.364Z,1015.94
2017-03-29T07:18:32.300Z,1015.96
2017-03-29T07:19:42.542Z,1015.96
2017-03-29T07:20:52.469Z,1015.99
2017-03-29T07:22:02.712Z,1016.01
2017-03-29T07:23:12.955Z,1016.06
2017-03-29T07:24:23.197Z,1016.03
2017-03-29T07:25:33.442Z,1016.08
2017-03-29T07:26:43.690Z,1016.1
2017-03-29T07:27:53.302Z,1016.13
2017-03-29T07:29:03.229Z,1016.1
2017-03-29T07:30:13.471Z,1016.12
2017-03-29T07:31:23.713Z,1016.08
2017-03-29T07:32:33.959Z,1016.13
2017-03-29T07:33:44.208Z,1016.17
2017-03-29T07:34:54.149Z,1016.17
2017-03-29T07:36:04.078Z,1016.15
2017-03-29T07:37:14.324Z,1016.1
2017-03-29T07:38:24.246Z,1016.13
2017-03-29T07:39:34.183Z,1016.18
2017-03-29T07:40:44.113Z,1016.15
2017-03-29T07:41:54.037Z,1016.19
2017-03-29T07:43:03.961Z,1016.16
2017-03-29T07:44:13.895Z,1016.17
2017-03-29T07:45:23.509Z,1016.16
2017-03-29T07:46:33.435Z,1016.24
2017-03-29T07:47:43.360Z,1016.18
2017-03-29T07:48:53.286Z,1016.15
2017-03-29T07:50:03.561Z,1016.11
2017-03-29T07:51:13.825Z,1016.26
2017-03-29T07:52:23.765Z,1016.21
2017-03-29T07:53:33.697Z,1016.15
2017-03-29T07:54:43.624Z,1016.18
2017-03-29T07:55:53.551Z,1016.08
2017-03-29T07:57:03.481Z,1016.16
2017-03-29T07:58:13.107Z,1016.06
2017-03-29T07:59:23.029Z,1016.14
2017-03-29T08:00:33.272Z,1016.12
2017-03-29T08:01:43.194Z,1016.18
2017-03-29T08:02:53.446Z,1016.2
2017-03-29T08:04:03.385Z,1016.35
2017-03-29T08:05:13.626Z,1016.22
2017-03-29T08:06:23.876Z,1016.25
2017-03-29T08:07:33.807Z,1016.27
2017-03-29T08:08:43.735Z,1016.34
2017-03-29T08:09:53.662Z,1016.44
2017-03-29T08:11:03.906Z,1016.24
2017-03-29T08:12:14.163Z,1016.36
2017-03-29T08:13:24.398Z,1016.37
2017-03-29T08:14:34.327Z,1016.33
2017-03-29T08:15:44.574Z,1016.36
2017-03-29T08:16:54.815Z,1016.37
2017-03-29T08:18:04.749Z,1016.42
2017-03-29T08:19:14.985Z,1016.41
2017-03-29T08:20:25.233Z,1016.53
2017-03-29T08:21:35.485Z,1016.49
2017-03-29T08:22:45.414Z,1016.53
2017-03-29T08:23:55.651Z,1016.51
2017-03-29T08:25:05.582Z,1016.55
2017-03-29T08:26:15.828Z,1016.59
2017-03-29T08:27:26.071Z,1016.62
2017-03-29T08:28:36.310Z,1016.51
2017-03-29T08:29:46.238Z,1016.77
2017-03-29T08:30:55.862Z,1016.64
2017-03-29T08:32:06.104Z,1016.59
2017-03-29T08:33:16.354Z,1016.54
2017-03-29T08:34:26.598Z,1016.64
2017-03-29T08:35:36.531Z,1016.57
2017-03-29T08:36:46.148Z,1016.58
2017-03-29T08:37:56.079Z,1016.54
2017-03-29T08:39:06.007Z,1016.66
2017-03-29T08:40:15.312Z,1016.61
2017-03-29T08:41:25.243Z,1016.64
2017-03-29T08:42:35.483Z,1016.62
2017-03-29T08:43:45.724Z,1016.64
2017-03-29T08:44:55.964Z,1016.66
2017-03-29T08:46:06.202Z,1016.69
2017-03-29T08:47:16.131Z,1016.72
2017-03-29T08:48:26.372Z,1016.72
2017-03-29T08:49:36.299Z,1016.67
2017-03-29T08:50:46.237Z,1016.73
2017-03-29T08:51:56.480Z,1016.72
2017-03-29T08:53:06.728Z,1016.76
2017-03-29T08:54:16.976Z,1016.65
2017-03-29T08:55:27.214Z,1016.67
2017-03-29T08:56:37.154Z,1016.66
2017-03-29T08:57:47.085Z,1016.7
2017-03-29T08:58:57.016Z,1016.7
2017-03-29T09:00:06.943Z,1016.68
2017-03-29T09:01:17.189Z,1016.71
2017-03-29T09:02:27.439Z,1016.59
2017-03-29T09:03:37.685Z,1016.7
2017-03-29T09:04:47.614Z,1016.76
2017-03-29T09:05:57.847Z,1016.68
2017-03-29T09:07:08.091Z,1016.8
2017-03-29T09:08:18.328Z,1016.78
2017-03-29T09:09:27.943Z,1016.92
2017-03-29T09:10:38.188Z,1016.83
2017-03-29T09:11:48.430Z,1016.82
2017-03-29T09:12:58.358Z,1016.84
2017-03-29T09:14:07.978Z,1016.9
2017-03-29T09:15:18.215Z,1016.87
2017-03-29T09:16:28.453Z,1017
2017-03-29T09:17:38.694Z,1016.91
2017-03-29T09:18:48.623Z,1017.01
2017-03-29T09:19:58.546Z,1017.03
2017-03-29T09:21:08.160Z,1016.98
2017-03-29T09:22:18.409Z,1017.02
2017-03-29T09:23:28.665Z,1017.04
2017-03-29T09:24:38.905Z,1016.98
2017-03-29T09:25:48.214Z,1016.98
2017-03-29T09:26:58.450Z,1017.09
2017-03-29T09:28:08.063Z,1017.18
2017-03-29T09:29:17.996Z,1017
2017-03-29T09:30:27.611Z,1017.05
2017-03-29T09:31:37.545Z,1017.09
2017-03-29T09:32:47.816Z,1017.07
2017-03-29T09:33:57.743Z,1017.09
2017-03-29T09:35:07.983Z,1017.14
2017-03-29T09:36:18.224Z,1017.1
2017-03-29T09:37:28.470Z,1017.21
2017-03-29T09:38:38.712Z,1017.08
2017-03-29T09:39:48.331Z,1017.1
2017-03-29T09:40:58.568Z,1017.02
2017-03-29T09:42:08.811Z,1017.02
2017-03-29T09:43:19.048Z,1016.98
2017-03-29T09:44:28.665Z,1017.13
2017-03-29T09:45:38.904Z,1017.05
2017-03-29T09:46:49.158Z,1017.08
2017-03-29T09:47:59.405Z,1017.1
2017-03-29T09:49:09.638Z,1017.06
2017-03-29T09:50:19.885Z,1017.07
2017-03-29T09:51:29.817Z,1017.11
2017-03-29T09:52:40.055Z,1017.13
2017-03-29T09:53:50.300Z,1017.14
2017-03-29T09:55:00.538Z,1017.19
2017-03-29T09:56:10.472Z,1017.26
2017-03-29T09:57:20.398Z,1017.23
2017-03-29T09:58:30.015Z,1017.21
2017-03-29T09:59:40.261Z,1017.13
2017-03-29T10:00:50.508Z,1017.25
2017-03-29T10:01:59.854Z,1017.22
2017-03-29T10:03:10.103Z,1017.18
2017-03-29T10:04:20.343Z,1017.22
2017-03-29T10:05:30.587Z,1017.32
2017-03-29T10:06:40.830Z,1017.08
2017-03-29T10:07:51.072Z,1017.13
2017-03-29T10:09:00.686Z,1017.21
2017-03-29T10:10:10.609Z,1017.24
2017-03-29T10:11:20.538Z,1017.19
2017-03-29T10:12:30.480Z,1017.27
2017-03-29T10:13:40.417Z,1017.23
2017-03-29T10:14:50.673Z,1017.35
2017-03-29T10:16:00.913Z,1017.23
2017-03-29T10:17:11.157Z,1017.21
2017-03-29T10:18:21.095Z,1017.39
2017-03-29T10:19:31.335Z,1017.43
2017-03-29T10:20:41.578Z,1017.35
2017-03-29T10:21:51.822Z,1017.27
2017-03-29T10:23:02.067Z,1017.26
2017-03-29T10:24:12.003Z,1017.26
2017-03-29T10:25:21.931Z,1017.28
2017-03-29T10:26:32.177Z,1017.22
2017-03-29T10:27:42.417Z,1017.26
2017-03-29T10:28:52.664Z,1017.13
2017-03-29T10:30:02.595Z,1017.22
2017-03-29T10:31:12.835Z,1017.33
2017-03-29T10:32:23.081Z,1017.22
2017-03-29T10:33:33.322Z,1017.19
2017-03-29T10:34:43.252Z,1017.08
2017-03-29T10:35:53.500Z,1017.25
2017-03-29T10:37:03.745Z,1017.09
2017-03-29T10:38:13.669Z,1017.09
2017-03-29T10:39:23.595Z,1017.12
2017-03-29T10:40:33.205Z,1017.34
2017-03-29T10:41:43.450Z,1017.2
2017-03-29T10:42:53.682Z,1017.23
2017-03-29T10:44:03.615Z,1017.23
2017-03-29T10:45:13.854Z,1017.16
2017-03-29T10:46:23.781Z,1017.25
2017-03-29T10:47:33.745Z,1017.33
2017-03-29T10:48:43.671Z,1017.51
2017-03-29T10:49:53.908Z,1017.36
2017-03-29T10:51:03.830Z,1017.23
2017-03-29T10:52:14.064Z,1017.37
2017-03-29T10:53:24.307Z,1017.34
2017-03-29T10:54:34.556Z,1017.21
2017-03-29T10:55:44.799Z,1017.18
2017-03-29T10:56:54.730Z,1017.16
2017-03-29T10:58:04.972Z,1017.16
2017-03-29T10:59:14.904Z,1017.12
2017-03-29T11:00:24.834Z,1017.26
2017-03-29T11:01:35.072Z,1017.16
2017-03-29T11:02:45.312Z,1017.13
2017-03-29T11:03:55.551Z,1017.2
2017-03-29T11:05:05.481Z,1017.16
2017-03-29T11:06:15.410Z,1017.34
2017-03-29T11:07:25.651Z,1017.11
2017-03-29T11:08:35.894Z,1017.17
2017-03-29T11:09:46.137Z,1017.12
2017-03-29T11:10:55.794Z,1017.15
2017-03-29T11:12:06.038Z,1017.07
2017-03-29T11:13:15.970Z,1017.29
2017-03-29T11:14:25.922Z,1017.13
2017-03-29T11:15:36.170Z,1017.07
2017-03-29T11:16:46.408Z,1017.25
2017-03-29T11:17:56.648Z,1017.25
2017-03-29T11:19:06.885Z,1017.08
2017-03-29T11:20:16.819Z,1017.24
2017-03-29T11:21:27.058Z,1017.19
2017-03-29T11:22:36.986Z,1017.23
2017-03-29T11:23:47.227Z,1017.21
2017-03-29T11:24:57.471Z,1017.49
2017-03-29T11:26:07.400Z,1017.2
2017-03-29T11:27:17.642Z,1017.29
2017-03-29T11:28:27.568Z,1017.26
2017-03-29T11:29:37.494Z,1017.26
2017-03-29T11:30:47.731Z,1017.21
2017-03-29T11:31:57.969Z,1017.43
2017-03-29T11:33:08.220Z,1017.35
2017-03-29T11:34:18.461Z,1017.28
2017-03-29T11:35:27.766Z,1017.24
2017-03-29T11:36:37.699Z,1017.29
2017-03-29T11:37:47.945Z,1017.55
2017-03-29T11:38:58.186Z,1017.37
2017-03-29T11:40:07.804Z,1017.61
2017-03-29T11:41:18.056Z,1017.42
2017-03-29T11:42:27.992Z,1017.73
2017-03-29T11:43:38.233Z,1017.47
2017-03-29T11:44:48.472Z,1017.37
2017-03-29T11:45:58.715Z,1017.37
2017-03-29T11:47:08.965Z,1017.55
2017-03-29T11:48:19.209Z,1017.47
2017-03-29T11:49:29.451Z,1017.65
2017-03-29T11:50:39.069Z,1017.42
2017-03-29T11:51:49.311Z,1017.33
2017-03-29T11:52:58.934Z,1017.42
2017-03-29T11:54:08.554Z,1017.36
2017-03-29T11:55:18.796Z,1017.44
2017-03-29T11:56:28.098Z,1017.52
2017-03-29T11:57:38.343Z,1017.51
2017-03-29T11:58:48.589Z,1017.49
2017-03-29T11:59:58.829Z,1017.51
2017-03-29T12:01:08.446Z,1017.6
2017-03-29T12:02:18.381Z,1017.6
2017-03-29T12:03:28.316Z,1017.56
2017-03-29T12:04:37.934Z,1017.54
2017-03-29T12:05:48.178Z,1017.51
2017-03-29T12:06:58.109Z,1017.54
2017-03-29T12:08:07.732Z,1017.51
2017-03-29T12:09:17.981Z,1017.45
2017-03-29T12:10:27.903Z,1017.58
2017-03-29T12:11:38.149Z,1017.56
2017-03-29T12:12:48.083Z,1017.56
2017-03-29T12:13:58.318Z,1017.62
2017-03-29T12:15:08.555Z,1017.68
2017-03-29T12:16:18.484Z,1017.56
2017-03-29T12:17:28.721Z,1017.57
2017-03-29T12:18:38.957Z,1017.54
2017-03-29T12:19:49.202Z,1017.62
2017-03-29T12:20:59.455Z,1017.65
2017-03-29T12:22:09.393Z,1017.61
2017-03-29T12:23:19.664Z,1017.52
2017-03-29T12:24:29.910Z,1017.5
2017-03-29T12:25:40.156Z,1017.57
2017-03-29T12:26:49.777Z,1017.7
2017-03-29T12:27:59.724Z,1017.55
2017-03-29T12:29:09.650Z,1017.54
2017-03-29T12:30:19.260Z,1017.56
2017-03-29T12:31:29.501Z,1017.57
2017-03-29T12:32:39.741Z,1017.56
2017-03-29T12:33:49.983Z,1017.52
2017-03-29T12:34:59.294Z,1017.59
2017-03-29T12:36:09.225Z,1017.55
2017-03-29T12:37:19.155Z,1017.63
2017-03-29T12:38:29.400Z,1017.53
2017-03-29T12:39:39.332Z,1017.6
2017-03-29T12:40:49.264Z,1017.68
2017-03-29T12:41:59.187Z,1017.64
2017-03-29T12:43:09.429Z,1017.65
2017-03-29T12:44:19.674Z,1017.53
2017-03-29T12:45:29.925Z,1017.55
2017-03-29T12:46:39.863Z,1017.58
2017-03-29T12:47:50.110Z,1017.52
2017-03-29T12:48:59.099Z,1017.54
2017-03-29T12:50:09.037Z,1017.44
2017-03-29T12:51:18.969Z,1017.55
2017-03-29T12:52:28.893Z,1017.45
2017-03-29T12:53:39.136Z,1017.48
2017-03-29T12:54:49.064Z,1017.54
2017-03-29T12:55:59.302Z,1017.46
2017-03-29T12:57:09.551Z,1017.48
2017-03-29T12:58:19.479Z,1017.54
2017-03-29T12:59:29.410Z,1017.5
2017-03-29T13:00:39.032Z,1017.51
2017-03-29T13:01:48.961Z,1017.5
2017-03-29T13:02:58.883Z,1017.53
2017-03-29T13:04:09.118Z,1017.51
2017-03-29T13:05:19.361Z,1017.5
2017-03-29T13:06:29.619Z,1017.52
2017-03-29T13:07:39.871Z,1017.5
2017-03-29T13:08:50.129Z,1017.51
2017-03-29T13:10:00.374Z,1017.5
2017-03-29T13:11:10.308Z,1017.55
2017-03-29T13:12:20.236Z,1017.54
2017-03-29T13:13:30.470Z,1017.5
2017-03-29T13:14:40.393Z,1017.49
2017-03-29T13:15:50.633Z,1017.54
2017-03-29T13:17:00.557Z,1017.56
2017-03-29T13:18:10.805Z,1017.48
2017-03-29T13:19:21.043Z,1017.51
2017-03-29T13:20:30.971Z,1017.55
2017-03-29T13:21:41.208Z,1017.47
2017-03-29T13:22:51.449Z,1017.46
2017-03-29T13:24:01.686Z,1017.45
2017-03-29T13:25:11.616Z,1017.43
2017-03-29T13:26:21.546Z,1017.48
2017-03-29T13:27:31.792Z,1017.47
2017-03-29T13:28:41.729Z,1017.49
2017-03-29T13:29:51.659Z,1017.48
2017-03-29T13:31:01.907Z,1017.53
2017-03-29T13:32:12.156Z,1017.54
2017-03-29T13:33:22.398Z,1017.51
2017-03-29T13:34:32.357Z,1017.48
2017-03-29T13:35:42.286Z,1017.5
2017-03-29T13:36:52.216Z,1017.52
2017-03-29T13:38:02.148Z,1017.5
2017-03-29T13:39:11.761Z,1017.51
2017-03-29T13:40:21.694Z,1017.57
2017-03-29T13:41:31.617Z,1017.46
2017-03-29T13:42:41.861Z,1017.47
2017-03-29T13:43:51.790Z,1017.54
2017-03-29T13:45:02.029Z,1017.49
2017-03-29T13:46:11.960Z,1017.41
2017-03-29T13:47:21.894Z,1017.43
2017-03-29T13:48:31.841Z,1017.43
2017-03-29T13:49:41.156Z,1017.43
2017-03-29T13:50:51.402Z,1017.41
2017-03-29T13:52:01.642Z,1017.39
2017-03-29T13:53:11.884Z,1017.38
2017-03-29T13:54:22.124Z,1017.38
2017-03-29T13:55:31.737Z,1017.38
2017-03-29T13:56:41.665Z,1017.39
2017-03-29T13:57:51.908Z,1017.43
2017-03-29T13:59:02.147Z,1017.56
2017-03-29T14:00:12.072Z,1017.46
2017-03-29T14:01:22.315Z,1017.47
2017-03-29T14:02:32.238Z,1017.44
2017-03-29T14:03:42.162Z,1017.32
2017-03-29T14:04:52.083Z,1017.37
2017-03-29T14:06:01.706Z,1017.33
2017-03-29T14:07:11.954Z,1017.36
2017-03-29T14:08:22.187Z,1017.38
2017-03-29T14:09:32.428Z,1017.35
2017-03-29T14:10:42.368Z,1017.36